Station SVNM4 - South Haven Light, South Haven, MI Image indicating link to RSS feed of recent meteorological observations for station SVNM4


Conditions at SVNM4 as of
(3:30 am EDT)
0730 GMT on 06/23/2024:
     

Click on the graph icon in the table below to see a time series plot of the last five days of that observation.

5-day plot - Wind Direction Wind Direction (WDIR): S ( 190 deg true )
5-day plot - Wind Speed Wind Speed (WSPD): 14 kts
5-day plot - Wind Gust Wind Gust (GST): 15 kts
5-day plot - Air Temperature Air Temperature (ATMP): 72.1 °F
5-day plot -  Wind Speed, Wind Gust and Atmospheric Pressure Combined plot of Wind Speed, Gust, and Air Pressure
Previous observations
TIME
(EDT)
5-day plot - Wind Direction
WDIR
 
5-day plot - Wind Speed
WSPD
kts
5-day plot - Wind Gust
GST
kts
5-day plot - Wave Height
WVHT
ft
5-day plot - Dominant Wave Period
DPD
sec
5-day plot - Average Wave Period
APD
sec
5-day plot - Mean Wave Direction
MWD
 
5-day plot - Atmospheric Pressure
PRES
in
5-day plot - Pressure Tendency
PTDY
in
5-day plot - Air Temperature
ATMP
°F
5-day plot - Water Temperature
WTMP
°F
5-day plot - Dew Point
DEWP
°F
5-day plot - Salinity
SAL
psu
5-day plot - Visibility
VIS
nmi
5-day plot - Tide (above MLLW)
TIDE
ft
2024-06-23 03:20 amSSW 15 17------ 72.5-----
2024-06-23 03:10 amSSE 12 14------ 71.6-----
2024-06-23 03:00 am SE 15 18------ 70.9-----
2024-06-23 02:50 am SE 20 24------ 71.6-----
2024-06-23 02:40 amSSE 17 19------ 72.0-----
2024-06-23 02:30 amSSE 16 18------ 71.6-----
2024-06-23 02:20 amSSE 13 16------ 71.6-----
2024-06-23 02:10 am SE 13 15------ 71.1-----
2024-06-23 02:00 am SE 14 16------ 70.3-----
2024-06-23 01:50 amSSE 15 18------ 70.9-----
2024-06-23 01:40 am S 20 22------ 70.5-----
2024-06-23 01:30 am S 25 28------ 71.4-----
2024-06-23 01:20 am S 26 28------ 71.6-----
2024-06-23 01:10 am S 28 33------ 71.8-----
2024-06-23 01:00 am S 25 29------ 72.0-----
2024-06-23 12:50 amSSW 23 26------ 72.1-----
2024-06-23 12:40 amSSW 22 25------ 72.3-----
2024-06-23 12:30 amSSW 23 25------ 73.0-----
2024-06-23 12:20 amSSW 28 31------ 73.4-----
2024-06-23 12:10 amSSW 26 29------ 72.9-----
2024-06-23 12:00 amSSW 28 32------ 71.2-----
2024-06-22 11:50 pmSSW 25 30------ 75.9-----
2024-06-22 11:40 pm S 20 23------ 81.0-----
2024-06-22 11:30 pm S 19 20------ 81.3-----
2024-06-22 11:20 pm S 19 21------ 81.7-----
2024-06-22 11:10 pm S 18 19------ 81.5-----
2024-06-22 11:00 pm S 19 21------ 81.7-----
2024-06-22 10:50 pm S 20 21------ 82.4-----
2024-06-22 10:40 pm S 21 24------ 83.5-----
2024-06-22 10:30 pmSSE 18 20------ 82.6-----
2024-06-22 10:20 pm S 15 16------ 81.0-----
2024-06-22 10:10 pm S 15 16------ 80.1-----
2024-06-22 10:00 pm S 15 15------ 80.4-----
2024-06-22 09:50 pm S 12 14------ 77.9-----
2024-06-22 09:40 pm S 12 13------ 77.2-----
2024-06-22 09:30 pm S 13 14------ 77.5-----
2024-06-22 09:20 pm S 15 16------ 78.4-----
2024-06-22 09:10 pmSSE 17 18------ 78.8-----
2024-06-22 09:00 pmSSE 16 18------ 78.8-----
2024-06-22 08:50 pm S 19 21------ 80.1-----
2024-06-22 08:40 pm S 18 20------ 79.7-----
2024-06-22 08:30 pm S 18 20------ 80.2-----
2024-06-22 08:20 pm S 17 18------ 80.2-----
2024-06-22 08:10 pm S 16 16------ 79.7-----
2024-06-22 08:00 pm S 15 16------ 78.8-----
2024-06-22 07:40 pm S 15 16------ 78.8-----
2024-06-22 07:30 pmSSE 14 16------ 78.3-----
2024-06-22 07:20 pmSSE 13 14------ 78.3-----
2024-06-22 07:10 pm S 14 15------ 78.4-----
2024-06-22 07:00 pm S 14 15------ 78.3-----
2024-06-22 06:50 pmSSE 14 15------ 77.9-----
2024-06-22 06:40 pmSSE 13 14------ 77.7-----
2024-06-22 06:30 pmSSE 13 14------ 78.1-----
2024-06-22 06:20 pmSSE 13 13------ 78.1-----
2024-06-22 06:10 pmSSE 12 13------ 78.3-----
2024-06-22 06:00 pmSSE 13 14------ 78.3-----
2024-06-22 05:50 pmSSE 13 13------ 78.1-----
2024-06-22 05:40 pmSSE 11 12------ 77.5-----
2024-06-22 05:30 pm S 11 11------ 77.5-----
2024-06-22 05:20 pm S 10 11------ 77.2-----
2024-06-22 05:10 pm S 12 12------ 77.7-----
2024-06-22 05:00 pm S 11 12------ 77.7-----
2024-06-22 04:50 pmSSE 11 12------ 77.7-----
2024-06-22 04:40 pm S 11 12------ 78.1-----
2024-06-22 04:30 pmSSE 8 9------ 77.7-----
2024-06-22 04:20 pmSSE 10 11------ 77.4-----
2024-06-22 04:10 pmSSE 10 10------ 76.8-----
2024-06-22 04:00 pm S 11 11------ 77.2-----
2024-06-22 03:50 pmSSE 12 13------ 78.1-----
2024-06-22 03:40 pmSSE 11 12------ 77.7-----
2024-06-22 03:30 pmSSE 10 11------ 77.5-----
2024-06-22 03:20 pm S 11 12------ 78.1-----
2024-06-22 03:10 pmSSE 11 12------ 78.1-----
2024-06-22 03:00 pm S 12 13------ 78.3-----
2024-06-22 02:50 pm S 12 13------ 78.1-----
2024-06-22 02:40 pmSSE 12 13------ 77.9-----
2024-06-22 02:30 pmSSE 12 12------ 77.7-----
2024-06-22 02:20 pm S 12 13------ 78.3-----
2024-06-22 02:10 pm S 12 12------ 78.1-----
2024-06-22 02:00 pm S 11 12------ 77.9-----
2024-06-22 01:50 pm S 12 13------ 78.1-----
2024-06-22 01:40 pm S 13 14------ 78.3-----
2024-06-22 01:30 pm S 13 14------ 78.4-----
2024-06-22 01:20 pmSSE 12 13------ 77.9-----
2024-06-22 01:10 pm S 14 16------ 78.6-----
2024-06-22 01:00 pm S 14 15------ 78.3-----
2024-06-22 12:50 pmSSE 14 15------ 77.5-----
2024-06-22 12:40 pm S 15 17------ 77.9-----
2024-06-22 12:30 pm S 16 17------ 78.1-----
2024-06-22 12:20 pm S 15 16------ 77.9-----
2024-06-22 12:10 pm S 16 17------ 77.9-----
2024-06-22 12:00 pm S 15 16------ 77.7-----
2024-06-22 11:50 am S 16 17------ 77.7-----
2024-06-22 11:40 am S 16 17------ 77.5-----
2024-06-22 11:30 am S 15 16------ 77.2-----
2024-06-22 11:20 am S 15 16------ 77.2-----
2024-06-22 11:10 am S 15 16------ 77.2-----
2024-06-22 11:00 am S 15 16------ 77.0-----
2024-06-22 10:50 am S 15 16------ 77.0-----
2024-06-22 10:40 am S 14 16------ 77.0-----
2024-06-22 10:30 am S 15 16------ 77.2-----
2024-06-22 10:20 am S 14 15------ 77.0-----
2024-06-22 10:10 am S 14 15------ 76.8-----
2024-06-22 10:00 am S 13 15------ 76.8-----
2024-06-22 09:50 am S 14 14------ 77.4-----
2024-06-22 09:40 am S 15 16------ 77.5-----
2024-06-22 09:30 am S 14 16------ 78.1-----
2024-06-22 09:20 am S 12 13------ 77.7-----
2024-06-22 09:10 am S 9 10------ 77.0-----
2024-06-22 09:00 am S 6 8------ 76.6-----
2024-06-22 08:50 am S 3 5------ 75.7-----
2024-06-22 08:40 am SW 3 4------ 76.1-----
2024-06-22 08:30 am S 5 5------ 77.2-----
2024-06-22 08:20 am S 3 5------ 77.0-----
2024-06-22 08:10 amSSE 3 4------ 76.6-----
2024-06-22 08:00 am S 6 7------ 76.3-----
2024-06-22 07:50 amSSE 8 9------ 76.3-----
2024-06-22 07:40 amSSE 9 10------ 76.1-----
2024-06-22 07:30 amSSE 8 9------ 75.6-----
2024-06-22 07:20 amSSE 8 9------ 74.8-----
2024-06-22 07:10 amSSE 9 10------ 74.3-----
2024-06-22 07:00 amSSE 8 10------ 73.9-----
2024-06-22 06:50 am S 8 8------ 73.8-----
2024-06-22 06:40 am S 8 9------ 73.9-----
2024-06-22 06:30 am S 9 10------ 74.5-----
2024-06-22 06:20 am S 9 10------ 74.5-----
2024-06-22 06:10 am S 7 8------ 74.7-----
2024-06-22 06:00 amSSW 9 10------ 75.6-----
2024-06-22 05:50 am S 10 10------ 76.6-----
2024-06-22 05:40 am S 8 9------ 77.4-----
2024-06-22 05:30 amSSE 10 11------ 78.1-----
2024-06-22 05:20 amSSE 9 11------ 78.1-----
2024-06-22 05:10 amSSE 8 9------ 77.7-----
2024-06-22 05:00 amSSE 6 7------ 77.2-----
2024-06-22 04:50 amSSE 7 7------ 77.5-----
2024-06-22 04:40 amSSE 7 8------ 77.5-----
2024-06-22 04:30 amSSE 7 8------ 77.5-----
2024-06-22 04:20 amSSE 5 6------ 76.6-----
2024-06-22 04:10 amSSE 5 6------ 76.5-----
2024-06-22 04:00 am S 5 5------ 76.6-----
2024-06-22 03:50 amSSE 3 4------ 76.3-----
2024-06-22 03:40 am SE 4 4------ 76.3-----
2024-06-22 03:30 am SE 4 4------ 76.3-----
2024-06-22 03:20 amSSE 5 5------ 75.6-----
2024-06-22 03:10 amSSE 6 7------ 75.9-----
2024-06-22 03:00 amSSE 6 6------ 75.7-----
2024-06-22 02:50 am S 6 7------ 76.3-----